sensor_id;sensor_type;location;lat;lon;timestamp;temperature;humidity
64198;SHT31;50512;53.666;9.700;2023-10-19T00:00:01;8.16;83.99
64198;SHT31;50512;53.666;9.700;2023-10-19T00:02:46;8.12;84.44
64198;SHT31;50512;53.666;9.700;2023-10-19T00:05:13;8.15;84.06
64198;SHT31;50512;53.666;9.700;2023-10-19T00:07:41;8.19;84.30
64198;SHT31;50512;53.666;9.700;2023-10-19T00:10:07;8.17;84.12
64198;SHT31;50512;53.666;9.700;2023-10-19T00:12:35;8.21;83.91
64198;SHT31;50512;53.666;9.700;2023-10-19T00:15:00;8.21;84.35
64198;SHT31;50512;53.666;9.700;2023-10-19T00:17:29;8.23;84.11
64198;SHT31;50512;53.666;9.700;2023-10-19T00:19:57;8.21;84.08
64198;SHT31;50512;53.666;9.700;2023-10-19T00:22:36;8.23;83.99
64198;SHT31;50512;53.666;9.700;2023-10-19T00:25:03;8.17;84.41
64198;SHT31;50512;53.666;9.700;2023-10-19T00:27:29;8.28;83.88
64198;SHT31;50512;53.666;9.700;2023-10-19T00:29:56;8.21;84.40
64198;SHT31;50512;53.666;9.700;2023-10-19T00:32:31;8.17;84.56
64198;SHT31;50512;53.666;9.700;2023-10-19T00:35:04;8.16;85.03
64198;SHT31;50512;53.666;9.700;2023-10-19T00:37:47;8.21;84.28
64198;SHT31;50512;53.666;9.700;2023-10-19T00:40:15;8.21;84.25
64198;SHT31;50512;53.666;9.700;2023-10-19T00:43:03;8.22;84.26
64198;SHT31;50512;53.666;9.700;2023-10-19T00:45:31;8.23;84.54
64198;SHT31;50512;53.666;9.700;2023-10-19T00:48:06;8.17;84.70
64198;SHT31;50512;53.666;9.700;2023-10-19T00:50:34;8.23;84.63
64198;SHT31;50512;53.666;9.700;2023-10-19T00:53:03;8.21;84.87
64198;SHT31;50512;53.666;9.700;2023-10-19T00:55:32;8.13;85.15
64198;SHT31;50512;53.666;9.700;2023-10-19T00:58:00;8.13;85.36
64198;SHT31;50512;53.666;9.700;2023-10-19T01:00:35;8.23;84.53
64198;SHT31;50512;53.666;9.700;2023-10-19T01:03:10;8.22;84.46
64198;SHT31;50512;53.666;9.700;2023-10-19T01:05:39;8.23;84.11
64198;SHT31;50512;53.666;9.700;2023-10-19T01:08:07;8.21;84.44
64198;SHT31;50512;53.666;9.700;2023-10-19T01:10:48;8.21;84.65
64198;SHT31;50512;53.666;9.700;2023-10-19T01:13:17;8.22;84.74
64198;SHT31;50512;53.666;9.700;2023-10-19T01:15:44;8.22;84.86
64198;SHT31;50512;53.666;9.700;2023-10-19T01:18:14;8.16;84.76
64198;SHT31;50512;53.666;9.700;2023-10-19T01:20:42;8.21;84.86
64198;SHT31;50512;53.666;9.700;2023-10-19T01:23:17;8.15;85.27
64198;SHT31;50512;53.666;9.700;2023-10-19T01:25:54;8.13;85.40
64198;SHT31;50512;53.666;9.700;2023-10-19T01:28:32;8.17;85.02
64198;SHT31;50512;53.666;9.700;2023-10-19T01:31:14;8.16;84.93
64198;SHT31;50512;53.666;9.700;2023-10-19T01:33:42;8.16;84.80
64198;SHT31;50512;53.666;9.700;2023-10-19T01:36:09;8.21;84.42
64198;SHT31;50512;53.666;9.700;2023-10-19T01:38:51;8.21;84.48
64198;SHT31;50512;53.666;9.700;2023-10-19T01:41:18;8.21;84.75
64198;SHT31;50512;53.666;9.700;2023-10-19T01:43:45;8.17;84.48
64198;SHT31;50512;53.666;9.700;2023-10-19T01:46:13;8.15;84.90
64198;SHT31;50512;53.666;9.700;2023-10-19T01:48:39;8.15;84.45
64198;SHT31;50512;53.666;9.700;2023-10-19T01:51:08;8.13;84.40
64198;SHT31;50512;53.666;9.700;2023-10-19T01:53:36;8.13;84.55
64198;SHT31;50512;53.666;9.700;2023-10-19T01:56:06;8.10;84.85
64198;SHT31;50512;53.666;9.700;2023-10-19T01:58:35;8.15;84.76
64198;SHT31;50512;53.666;9.700;2023-10-19T02:01:02;8.15;84.89
64198;SHT31;50512;53.666;9.700;2023-10-19T02:03:34;8.21;84.28
64198;SHT31;50512;53.666;9.700;2023-10-19T02:06:02;8.22;84.75
64198;SHT31;50512;53.666;9.700;2023-10-19T02:08:36;8.17;84.73
64198;SHT31;50512;53.666;9.700;2023-10-19T02:11:05;8.19;84.50
64198;SHT31;50512;53.666;9.700;2023-10-19T02:13:38;8.21;84.46
64198;SHT31;50512;53.666;9.700;2023-10-19T02:16:05;8.30;83.58
64198;SHT31;50512;53.666;9.700;2023-10-19T02:18:33;8.29;84.05
64198;SHT31;50512;53.666;9.700;2023-10-19T02:21:00;8.29;84.04
64198;SHT31;50512;53.666;9.700;2023-10-19T02:23:31;8.33;83.27
64198;SHT31;50512;53.666;9.700;2023-10-19T02:25:57;8.28;83.70
64198;SHT31;50512;53.666;9.700;2023-10-19T02:28:25;8.32;83.52
64198;SHT31;50512;53.666;9.700;2023-10-19T02:30:56;8.29;84.17
64198;SHT31;50512;53.666;9.700;2023-10-19T02:33:23;8.26;83.66
64198;SHT31;50512;53.666;9.700;2023-10-19T02:35:51;8.28;83.94
64198;SHT31;50512;53.666;9.700;2023-10-19T02:38:18;8.30;83.69
64198;SHT31;50512;53.666;9.700;2023-10-19T02:40:44;8.26;84.10
64198;SHT31;50512;53.666;9.700;2023-10-19T02:43:11;8.28;83.80
64198;SHT31;50512;53.666;9.700;2023-10-19T02:45:39;8.33;83.49
64198;SHT31;50512;53.666;9.700;2023-10-19T02:48:06;8.29;83.58
64198;SHT31;50512;53.666;9.700;2023-10-19T02:50:37;8.26;83.77
64198;SHT31;50512;53.666;9.700;2023-10-19T02:53:02;8.30;83.63
64198;SHT31;50512;53.666;9.700;2023-10-19T02:55:31;8.29;84.24
64198;SHT31;50512;53.666;9.700;2023-10-19T02:57:57;8.33;83.23
64198;SHT31;50512;53.666;9.700;2023-10-19T03:00:24;8.32;83.77
64198;SHT31;50512;53.666;9.700;2023-10-19T03:02:59;8.30;83.75
64198;SHT31;50512;53.666;9.700;2023-10-19T03:05:25;8.32;83.63
64198;SHT31;50512;53.666;9.700;2023-10-19T03:07:52;8.30;84.08
64198;SHT31;50512;53.666;9.700;2023-10-19T03:10:18;8.34;83.53
64198;SHT31;50512;53.666;9.700;2023-10-19T03:12:49;8.44;82.67
64198;SHT31;50512;53.666;9.700;2023-10-19T03:15:15;8.47;82.62
64198;SHT31;50512;53.666;9.700;2023-10-19T03:17:42;8.42;82.84
64198;SHT31;50512;53.666;9.700;2023-10-19T03:20:10;8.37;83.41
64198;SHT31;50512;53.666;9.700;2023-10-19T03:22:37;8.32;84.53
64198;SHT31;50512;53.666;9.700;2023-10-19T03:25:04;8.19;85.45
64198;SHT31;50512;53.666;9.700;2023-10-19T03:27:57;8.09;87.43
64198;SHT31;50512;53.666;9.700;2023-10-19T03:30:30;7.99;87.18
64198;SHT31;50512;53.666;9.700;2023-10-19T03:32:58;8.02;86.57
64198;SHT31;50512;53.666;9.700;2023-10-19T03:35:27;8.01;86.75
64198;SHT31;50512;53.666;9.700;2023-10-19T03:37:54;8.05;87.01
64198;SHT31;50512;53.666;9.700;2023-10-19T03:40:23;8.06;86.28
64198;SHT31;50512;53.666;9.700;2023-10-19T03:42:55;7.95;88.19
64198;SHT31;50512;53.666;9.700;2023-10-19T03:45:21;7.92;88.95
64198;SHT31;50512;53.666;9.700;2023-10-19T03:47:50;7.85;88.83
64198;SHT31;50512;53.666;9.700;2023-10-19T03:50:21;7.81;88.67
64198;SHT31;50512;53.666;9.700;2023-10-19T03:52:50;7.84;88.93
64198;SHT31;50512;53.666;9.700;2023-10-19T03:55:17;7.77;89.23
64198;SHT31;50512;53.666;9.700;2023-10-19T03:57:44;7.73;89.25
64198;SHT31;50512;53.666;9.700;2023-10-19T04:00:16;7.68;89.89
64198;SHT31;50512;53.666;9.700;2023-10-19T04:02:49;7.57;91.13
64198;SHT31;50512;53.666;9.700;2023-10-19T04:05:18;7.53;92.23
64198;SHT31;50512;53.666;9.700;2023-10-19T04:07:47;7.50;91.50
64198;SHT31;50512;53.666;9.700;2023-10-19T04:10:19;7.44;92.60
64198;SHT31;50512;53.666;9.700;2023-10-19T04:12:56;7.39;92.52
64198;SHT31;50512;53.666;9.700;2023-10-19T04:15:25;7.42;93.54
64198;SHT31;50512;53.666;9.700;2023-10-19T04:17:52;7.37;93.44
64198;SHT31;50512;53.666;9.700;2023-10-19T04:20:21;7.40;94.08
64198;SHT31;50512;53.666;9.700;2023-10-19T04:22:55;7.30;93.89
64198;SHT31;50512;53.666;9.700;2023-10-19T04:25:24;7.24;94.57
64198;SHT31;50512;53.666;9.700;2023-10-19T04:27:52;7.27;94.39
64198;SHT31;50512;53.666;9.700;2023-10-19T04:30:18;7.23;93.84
64198;SHT31;50512;53.666;9.700;2023-10-19T04:32:49;7.26;94.52
64198;SHT31;50512;53.666;9.700;2023-10-19T04:35:16;7.22;95.48
64198;SHT31;50512;53.666;9.700;2023-10-19T04:37:47;7.11;95.39
64198;SHT31;50512;53.666;9.700;2023-10-19T04:40:15;7.18;96.24
64198;SHT31;50512;53.666;9.700;2023-10-19T04:42:43;7.18;94.94
64198;SHT31;50512;53.666;9.700;2023-10-19T04:45:10;7.11;95.96
64198;SHT31;50512;53.666;9.700;2023-10-19T04:47:38;7.09;96.56
64198;SHT31;50512;53.666;9.700;2023-10-19T04:50:06;7.09;95.48
64198;SHT31;50512;53.666;9.700;2023-10-19T04:52:33;7.12;96.73
64198;SHT31;50512;53.666;9.700;2023-10-19T04:55:00;7.12;97.34
64198;SHT31;50512;53.666;9.700;2023-10-19T04:57:26;7.03;97.04
64198;SHT31;50512;53.666;9.700;2023-10-19T04:59:54;7.08;96.21
64198;SHT31;50512;53.666;9.700;2023-10-19T05:02:21;6.99;97.05
64198;SHT31;50512;53.666;9.700;2023-10-19T05:04:48;7.03;96.80
64198;SHT31;50512;53.666;9.700;2023-10-19T05:07:14;7.02;96.80
64198;SHT31;50512;53.666;9.700;2023-10-19T05:09:42;7.03;96.85
64198;SHT31;50512;53.666;9.700;2023-10-19T05:12:09;7.05;96.82
64198;SHT31;50512;53.666;9.700;2023-10-19T05:14:36;7.01;96.88
64198;SHT31;50512;53.666;9.700;2023-10-19T05:17:05;6.98;96.80
64198;SHT31;50512;53.666;9.700;2023-10-19T05:19:32;6.99;96.47
64198;SHT31;50512;53.666;9.700;2023-10-19T05:22:00;7.02;97.20
64198;SHT31;50512;53.666;9.700;2023-10-19T05:24:27;6.98;96.35
64198;SHT31;50512;53.666;9.700;2023-10-19T05:26:55;7.01;96.69
64198;SHT31;50512;53.666;9.700;2023-10-19T05:29:22;6.96;96.56
64198;SHT31;50512;53.666;9.700;2023-10-19T05:31:50;6.94;97.81
64198;SHT31;50512;53.666;9.700;2023-10-19T05:34:20;6.92;97.27
64198;SHT31;50512;53.666;9.700;2023-10-19T05:36:46;6.95;97.13
64198;SHT31;50512;53.666;9.700;2023-10-19T05:39:14;7.01;96.88
64198;SHT31;50512;53.666;9.700;2023-10-19T05:41:40;6.92;96.98
64198;SHT31;50512;53.666;9.700;2023-10-19T05:44:07;6.96;97.14
64198;SHT31;50512;53.666;9.700;2023-10-19T05:46:33;6.94;97.17
64198;SHT31;50512;53.666;9.700;2023-10-19T05:49:00;6.84;97.53
64198;SHT31;50512;53.666;9.700;2023-10-19T05:51:30;6.88;97.73
64198;SHT31;50512;53.666;9.700;2023-10-19T05:53:57;6.87;97.28
64198;SHT31;50512;53.666;9.700;2023-10-19T05:56:28;6.92;97.44
64198;SHT31;50512;53.666;9.700;2023-10-19T05:58:55;6.87;97.67
64198;SHT31;50512;53.666;9.700;2023-10-19T06:01:23;6.87;97.60
64198;SHT31;50512;53.666;9.700;2023-10-19T06:03:49;6.87;97.38
64198;SHT31;50512;53.666;9.700;2023-10-19T06:06:16;6.89;97.06
64198;SHT31;50512;53.666;9.700;2023-10-19T06:08:43;6.91;97.39
64198;SHT31;50512;53.666;9.700;2023-10-19T06:11:10;6.85;98.13
64198;SHT31;50512;53.666;9.700;2023-10-19T06:13:36;6.84;98.07
64198;SHT31;50512;53.666;9.700;2023-10-19T06:16:03;6.81;98.53
64198;SHT31;50512;53.666;9.700;2023-10-19T06:18:30;6.80;98.24
64198;SHT31;50512;53.666;9.700;2023-10-19T06:20:57;6.85;98.08
64198;SHT31;50512;53.666;9.700;2023-10-19T06:23:23;6.84;97.09
64198;SHT31;50512;53.666;9.700;2023-10-19T06:25:51;6.85;98.01
64198;SHT31;50512;53.666;9.700;2023-10-19T06:28:17;6.87;97.27
64198;SHT31;50512;53.666;9.700;2023-10-19T06:30:44;6.89;98.29
64198;SHT31;50512;53.666;9.700;2023-10-19T06:33:13;6.89;98.31
64198;SHT31;50512;53.666;9.700;2023-10-19T06:35:39;6.87;97.67
64198;SHT31;50512;53.666;9.700;2023-10-19T06:38:06;6.84;97.66
64198;SHT31;50512;53.666;9.700;2023-10-19T06:40:35;6.84;98.35
64198;SHT31;50512;53.666;9.700;2023-10-19T06:43:03;6.85;98.74
64198;SHT31;50512;53.666;9.700;2023-10-19T06:45:30;6.85;98.61
64198;SHT31;50512;53.666;9.700;2023-10-19T06:47:57;6.88;98.03
64198;SHT31;50512;53.666;9.700;2023-10-19T06:50:25;6.92;98.40
64198;SHT31;50512;53.666;9.700;2023-10-19T06:52:52;6.89;98.26
64198;SHT31;50512;53.666;9.700;2023-10-19T06:55:19;6.88;98.02
64198;SHT31;50512;53.666;9.700;2023-10-19T06:57:47;6.88;98.17
64198;SHT31;50512;53.666;9.700;2023-10-19T07:00:17;6.89;98.42
64198;SHT31;50512;53.666;9.700;2023-10-19T07:02:45;6.94;98.51
64198;SHT31;50512;53.666;9.700;2023-10-19T07:05:12;6.94;98.51
64198;SHT31;50512;53.666;9.700;2023-10-19T07:07:40;6.95;98.25
64198;SHT31;50512;53.666;9.700;2023-10-19T07:10:07;6.95;97.85
64198;SHT31;50512;53.666;9.700;2023-10-19T07:12:35;6.94;97.92
64198;SHT31;50512;53.666;9.700;2023-10-19T07:15:02;6.99;97.99
64198;SHT31;50512;53.666;9.700;2023-10-19T07:17:30;6.98;98.21
64198;SHT31;50512;53.666;9.700;2023-10-19T07:19:57;6.96;98.06
64198;SHT31;50512;53.666;9.700;2023-10-19T07:22:23;6.99;98.01
64198;SHT31;50512;53.666;9.700;2023-10-19T07:24:50;7.01;97.95
64198;SHT31;50512;53.666;9.700;2023-10-19T07:27:16;7.05;97.90
64198;SHT31;50512;53.666;9.700;2023-10-19T07:29:44;7.05;97.85
64198;SHT31;50512;53.666;9.700;2023-10-19T07:32:11;7.06;97.46
64198;SHT31;50512;53.666;9.700;2023-10-19T07:34:40;7.08;97.95
64198;SHT31;50512;53.666;9.700;2023-10-19T07:37:06;7.06;97.76
64198;SHT31;50512;53.666;9.700;2023-10-19T07:39:33;7.06;97.87
64198;SHT31;50512;53.666;9.700;2023-10-19T07:42:00;7.13;97.74
64198;SHT31;50512;53.666;9.700;2023-10-19T07:44:29;7.13;97.83
64198;SHT31;50512;53.666;9.700;2023-10-19T07:46:56;7.16;97.73
64198;SHT31;50512;53.666;9.700;2023-10-19T07:49:22;7.13;98.29
64198;SHT31;50512;53.666;9.700;2023-10-19T07:51:52;7.06;98.30
64198;SHT31;50512;53.666;9.700;2023-10-19T07:54:18;7.08;98.20
64198;SHT31;50512;53.666;9.700;2023-10-19T07:56:45;7.12;98.51
64198;SHT31;50512;53.666;9.700;2023-10-19T07:59:13;7.13;98.66
64198;SHT31;50512;53.666;9.700;2023-10-19T08:01:41;7.15;98.03
64198;SHT31;50512;53.666;9.700;2023-10-19T08:04:07;7.13;98.03
64198;SHT31;50512;53.666;9.700;2023-10-19T08:06:35;7.11;97.75
64198;SHT31;50512;53.666;9.700;2023-10-19T08:09:03;7.09;97.87
64198;SHT31;50512;53.666;9.700;2023-10-19T08:11:31;7.06;97.86
64198;SHT31;50512;53.666;9.700;2023-10-19T08:13:59;7.15;97.47
64198;SHT31;50512;53.666;9.700;2023-10-19T08:16:25;7.18;97.38
64198;SHT31;50512;53.666;9.700;2023-10-19T08:18:52;7.22;97.92
64198;SHT31;50512;53.666;9.700;2023-10-19T08:21:19;7.16;97.53
64198;SHT31;50512;53.666;9.700;2023-10-19T08:23:46;7.18;97.99
64198;SHT31;50512;53.666;9.700;2023-10-19T08:26:14;7.18;97.75
64198;SHT31;50512;53.666;9.700;2023-10-19T08:28:41;7.15;97.83
64198;SHT31;50512;53.666;9.700;2023-10-19T08:31:08;7.15;98.17
64198;SHT31;50512;53.666;9.700;2023-10-19T08:33:35;7.20;98.98
64198;SHT31;50512;53.666;9.700;2023-10-19T08:36:04;7.06;98.50
64198;SHT31;50512;53.666;9.700;2023-10-19T08:38:31;7.08;99.36
64198;SHT31;50512;53.666;9.700;2023-10-19T08:40:58;7.02;98.75
64198;SHT31;50512;53.666;9.700;2023-10-19T08:43:26;6.99;99.60
64198;SHT31;50512;53.666;9.700;2023-10-19T08:45:53;6.95;98.83
64198;SHT31;50512;53.666;9.700;2023-10-19T08:48:20;7.05;99.19
64198;SHT31;50512;53.666;9.700;2023-10-19T08:50:47;7.02;99.04
64198;SHT31;50512;53.666;9.700;2023-10-19T08:53:15;6.96;99.56
64198;SHT31;50512;53.666;9.700;2023-10-19T08:55:44;7.01;99.61
64198;SHT31;50512;53.666;9.700;2023-10-19T08:58:13;7.34;99.99
64198;SHT31;50512;53.666;9.700;2023-10-19T09:00:45;7.36;98.76
64198;SHT31;50512;53.666;9.700;2023-10-19T09:03:13;7.08;99.35
64198;SHT31;50512;53.666;9.700;2023-10-19T09:05:42;7.05;99.70
64198;SHT31;50512;53.666;9.700;2023-10-19T09:08:12;6.98;99.43
64198;SHT31;50512;53.666;9.700;2023-10-19T09:10:40;6.98;99.84
64198;SHT31;50512;53.666;9.700;2023-10-19T09:13:08;6.94;99.99
64198;SHT31;50512;53.666;9.700;2023-10-19T09:15:35;6.91;99.99
64198;SHT31;50512;53.666;9.700;2023-10-19T09:18:13;7.01;99.99
64198;SHT31;50512;53.666;9.700;2023-10-19T09:20:41;6.98;99.99
64198;SHT31;50512;53.666;9.700;2023-10-19T09:23:18;7.01;99.99
64198;SHT31;50512;53.666;9.700;2023-10-19T09:25:44;7.05;99.99
64198;SHT31;50512;53.666;9.700;2023-10-19T09:28:11;7.11;99.99
64198;SHT31;50512;53.666;9.700;2023-10-19T09:30:39;7.11;99.94
64198;SHT31;50512;53.666;9.700;2023-10-19T09:33:06;6.99;99.49
64198;SHT31;50512;53.666;9.700;2023-10-19T09:35:36;7.06;99.99
64198;SHT31;50512;53.666;9.700;2023-10-19T09:38:03;6.98;99.60
64198;SHT31;50512;53.666;9.700;2023-10-19T09:40:31;7.01;99.99
64198;SHT31;50512;53.666;9.700;2023-10-19T09:43:04;6.98;99.80
64198;SHT31;50512;53.666;9.700;2023-10-19T09:45:32;7.02;99.78
64198;SHT31;50512;53.666;9.700;2023-10-19T09:48:01;7.50;99.99
64198;SHT31;50512;53.666;9.700;2023-10-19T09:50:29;7.56;97.32
64198;SHT31;50512;53.666;9.700;2023-10-19T09:52:57;7.95;96.73
64198;SHT31;50512;53.666;9.700;2023-10-19T09:55:28;7.79;96.73
64198;SHT31;50512;53.666;9.700;2023-10-19T09:57:59;8.15;94.95
64198;SHT31;50512;53.666;9.700;2023-10-19T10:00:28;7.75;97.15
64198;SHT31;50512;53.666;9.700;2023-10-19T10:02:57;7.34;98.61
64198;SHT31;50512;53.666;9.700;2023-10-19T10:05:46;7.27;99.08
64198;SHT31;50512;53.666;9.700;2023-10-19T10:08:33;7.23;99.15
64198;SHT31;50512;53.666;9.700;2023-10-19T10:11:23;7.27;99.48
64198;SHT31;50512;53.666;9.700;2023-10-19T10:13:51;7.19;99.69
64198;SHT31;50512;53.666;9.700;2023-10-19T10:16:19;7.19;99.48
64198;SHT31;50512;53.666;9.700;2023-10-19T10:18:48;7.24;99.99
64198;SHT31;50512;53.666;9.700;2023-10-19T10:21:17;7.20;99.99
64198;SHT31;50512;53.666;9.700;2023-10-19T10:23:49;7.23;99.51
64198;SHT31;50512;53.666;9.700;2023-10-19T10:26:16;7.23;99.99
64198;SHT31;50512;53.666;9.700;2023-10-19T10:28:46;7.20;99.84
64198;SHT31;50512;53.666;9.700;2023-10-19T10:31:18;7.29;99.99
64198;SHT31;50512;53.666;9.700;2023-10-19T10:33:47;7.22;99.33
64198;SHT31;50512;53.666;9.700;2023-10-19T10:36:14;7.24;99.79
64198;SHT31;50512;53.666;9.700;2023-10-19T10:38:42;7.24;99.35
64198;SHT31;50512;53.666;9.700;2023-10-19T10:41:10;7.30;99.80
64198;SHT31;50512;53.666;9.700;2023-10-19T10:43:53;7.34;99.54
64198;SHT31;50512;53.666;9.700;2023-10-19T10:46:21;7.32;99.20
64198;SHT31;50512;53.666;9.700;2023-10-19T10:48:48;7.37;99.30
64198;SHT31;50512;53.666;9.700;2023-10-19T10:51:16;7.36;99.80
64198;SHT31;50512;53.666;9.700;2023-10-19T10:53:42;7.43;99.73
64198;SHT31;50512;53.666;9.700;2023-10-19T10:56:10;7.20;99.46
64198;SHT31;50512;53.666;9.700;2023-10-19T10:58:37;7.24;99.99
64198;SHT31;50512;53.666;9.700;2023-10-19T11:01:03;7.18;99.99
64198;SHT31;50512;53.666;9.700;2023-10-19T11:03:30;7.24;99.99
64198;SHT31;50512;53.666;9.700;2023-10-19T11:06:03;7.24;99.99
64198;SHT31;50512;53.666;9.700;2023-10-19T11:08:29;7.18;99.99
64198;SHT31;50512;53.666;9.700;2023-10-19T11:11:02;7.09;99.99
64198;SHT31;50512;53.666;9.700;2023-10-19T11:13:31;7.19;99.99
64198;SHT31;50512;53.666;9.700;2023-10-19T11:16:03;7.20;99.99
64198;SHT31;50512;53.666;9.700;2023-10-19T11:18:32;7.23;99.99
64198;SHT31;50512;53.666;9.700;2023-10-19T11:21:01;7.24;99.99
64198;SHT31;50512;53.666;9.700;2023-10-19T11:23:38;7.24;99.99
64198;SHT31;50512;53.666;9.700;2023-10-19T11:26:05;7.29;99.99
64198;SHT31;50512;53.666;9.700;2023-10-19T11:28:33;7.30;99.99
64198;SHT31;50512;53.666;9.700;2023-10-19T11:31:11;7.39;99.99
64198;SHT31;50512;53.666;9.700;2023-10-19T11:33:37;7.39;99.99
64198;SHT31;50512;53.666;9.700;2023-10-19T11:36:04;7.44;99.99
64198;SHT31;50512;53.666;9.700;2023-10-19T11:38:31;7.44;99.99
64198;SHT31;50512;53.666;9.700;2023-10-19T11:40:57;7.43;99.99
64198;SHT31;50512;53.666;9.700;2023-10-19T11:43:24;7.34;99.99
64198;SHT31;50512;53.666;9.700;2023-10-19T11:45:51;7.39;99.99
64198;SHT31;50512;53.666;9.700;2023-10-19T11:48:18;7.40;99.99
64198;SHT31;50512;53.666;9.700;2023-10-19T11:50:45;7.34;99.99
64198;SHT31;50512;53.666;9.700;2023-10-19T11:53:12;7.34;99.99
64198;SHT31;50512;53.666;9.700;2023-10-19T11:55:39;7.33;99.99
64198;SHT31;50512;53.666;9.700;2023-10-19T11:58:07;7.39;99.99
64198;SHT31;50512;53.666;9.700;2023-10-19T12:00:36;7.43;99.99
64198;SHT31;50512;53.666;9.700;2023-10-19T12:03:04;7.39;99.99
64198;SHT31;50512;53.666;9.700;2023-10-19T12:05:31;7.42;99.99
64198;SHT31;50512;53.666;9.700;2023-10-19T12:08:02;7.44;99.99
64198;SHT31;50512;53.666;9.700;2023-10-19T12:10:29;7.42;99.99
64198;SHT31;50512;53.666;9.700;2023-10-19T12:13:00;7.42;99.99
64198;SHT31;50512;53.666;9.700;2023-10-19T12:15:27;7.47;99.99
64198;SHT31;50512;53.666;9.700;2023-10-19T12:17:54;7.44;99.99
64198;SHT31;50512;53.666;9.700;2023-10-19T12:20:22;7.37;99.99
64198;SHT31;50512;53.666;9.700;2023-10-19T12:22:48;7.42;99.80
64198;SHT31;50512;53.666;9.700;2023-10-19T12:25:17;7.47;99.55
64198;SHT31;50512;53.666;9.700;2023-10-19T12:27:44;7.46;99.82
64198;SHT31;50512;53.666;9.700;2023-10-19T12:30:11;7.46;99.19
64198;SHT31;50512;53.666;9.700;2023-10-19T12:32:44;7.47;99.43
64198;SHT31;50512;53.666;9.700;2023-10-19T12:35:14;7.49;99.70
64198;SHT31;50512;53.666;9.700;2023-10-19T12:37:42;7.46;99.27
64198;SHT31;50512;53.666;9.700;2023-10-19T12:40:11;7.49;99.73
64198;SHT31;50512;53.666;9.700;2023-10-19T12:42:51;7.50;99.53
64198;SHT31;50512;53.666;9.700;2023-10-19T12:45:19;7.56;99.91
64198;SHT31;50512;53.666;9.700;2023-10-19T12:47:46;7.58;99.64
64198;SHT31;50512;53.666;9.700;2023-10-19T12:50:13;7.56;98.81
64198;SHT31;50512;53.666;9.700;2023-10-19T12:52:42;7.56;98.96
64198;SHT31;50512;53.666;9.700;2023-10-19T12:55:08;7.53;98.39
64198;SHT31;50512;53.666;9.700;2023-10-19T12:57:36;7.54;98.89
64198;SHT31;50512;53.666;9.700;2023-10-19T13:00:03;7.53;98.66
64198;SHT31;50512;53.666;9.700;2023-10-19T13:02:48;7.60;98.86
64198;SHT31;50512;53.666;9.700;2023-10-19T13:05:15;7.61;98.73
64198;SHT31;50512;53.666;9.700;2023-10-19T13:07:44;7.58;98.12
64198;SHT31;50512;53.666;9.700;2023-10-19T13:10:11;7.66;98.43
64198;SHT31;50512;53.666;9.700;2023-10-19T13:12:38;7.66;98.49
64198;SHT31;50512;53.666;9.700;2023-10-19T13:15:06;7.70;98.84
64198;SHT31;50512;53.666;9.700;2023-10-19T13:17:38;7.67;98.03
64198;SHT31;50512;53.666;9.700;2023-10-19T13:20:05;7.68;97.84
64198;SHT31;50512;53.666;9.700;2023-10-19T13:22:41;7.73;98.00
64198;SHT31;50512;53.666;9.700;2023-10-19T13:25:09;7.78;98.07
64198;SHT31;50512;53.666;9.700;2023-10-19T13:27:38;7.75;97.79
64198;SHT31;50512;53.666;9.700;2023-10-19T13:30:07;7.78;98.20
64198;SHT31;50512;53.666;9.700;2023-10-19T13:32:35;7.79;98.17
64198;SHT31;50512;53.666;9.700;2023-10-19T13:35:02;7.74;97.36
64198;SHT31;50512;53.666;9.700;2023-10-19T13:37:28;7.81;97.79
64198;SHT31;50512;53.666;9.700;2023-10-19T13:39:55;7.81;97.56
64198;SHT31;50512;53.666;9.700;2023-10-19T13:42:23;7.82;97.40
64198;SHT31;50512;53.666;9.700;2023-10-19T13:44:49;7.82;97.63
64198;SHT31;50512;53.666;9.700;2023-10-19T13:47:16;7.84;97.88
64198;SHT31;50512;53.666;9.700;2023-10-19T13:49:42;7.87;97.91
64198;SHT31;50512;53.666;9.700;2023-10-19T13:52:09;7.91;97.88
64198;SHT31;50512;53.666;9.700;2023-10-19T13:54:38;7.88;98.01
64198;SHT31;50512;53.666;9.700;2023-10-19T13:57:05;7.89;98.63
64198;SHT31;50512;53.666;9.700;2023-10-19T13:59:33;7.84;98.13
64198;SHT31;50512;53.666;9.700;2023-10-19T14:02:00;7.87;98.08
64198;SHT31;50512;53.666;9.700;2023-10-19T14:04:26;7.89;98.02
64198;SHT31;50512;53.666;9.700;2023-10-19T14:06:53;7.91;98.15
64198;SHT31;50512;53.666;9.700;2023-10-19T14:09:19;7.87;98.10
64198;SHT31;50512;53.666;9.700;2023-10-19T14:11:48;7.92;97.48
64198;SHT31;50512;53.666;9.700;2023-10-19T14:14:15;7.91;97.70
64198;SHT31;50512;53.666;9.700;2023-10-19T14:16:43;7.95;97.85
64198;SHT31;50512;53.666;9.700;2023-10-19T14:19:09;7.95;97.28
64198;SHT31;50512;53.666;9.700;2023-10-19T14:21:36;7.92;97.46
64198;SHT31;50512;53.666;9.700;2023-10-19T14:24:06;7.98;97.78
64198;SHT31;50512;53.666;9.700;2023-10-19T14:26:33;7.98;97.69
64198;SHT31;50512;53.666;9.700;2023-10-19T14:29:00;7.96;97.10
64198;SHT31;50512;53.666;9.700;2023-10-19T14:31:26;7.99;97.48
64198;SHT31;50512;53.666;9.700;2023-10-19T14:33:55;7.98;97.16
64198;SHT31;50512;53.666;9.700;2023-10-19T14:36:23;8.02;97.05
64198;SHT31;50512;53.666;9.700;2023-10-19T14:38:50;8.05;97.07
64198;SHT31;50512;53.666;9.700;2023-10-19T14:41:16;8.01;97.65
64198;SHT31;50512;53.666;9.700;2023-10-19T14:43:43;7.98;97.33
64198;SHT31;50512;53.666;9.700;2023-10-19T14:46:09;8.02;97.16
64198;SHT31;50512;53.666;9.700;2023-10-19T14:48:36;7.98;96.73
64198;SHT31;50512;53.666;9.700;2023-10-19T14:51:04;7.99;96.72
64198;SHT31;50512;53.666;9.700;2023-10-19T14:53:32;8.05;97.40
64198;SHT31;50512;53.666;9.700;2023-10-19T14:55:58;8.05;96.93
64198;SHT31;50512;53.666;9.700;2023-10-19T14:58:26;8.03;96.78
64198;SHT31;50512;53.666;9.700;2023-10-19T15:00:54;8.06;97.36
64198;SHT31;50512;53.666;9.700;2023-10-19T15:03:21;8.05;96.84
64198;SHT31;50512;53.666;9.700;2023-10-19T15:05:50;8.05;96.49
64198;SHT31;50512;53.666;9.700;2023-10-19T15:08:19;8.02;96.93
64198;SHT31;50512;53.666;9.700;2023-10-19T15:10:45;8.02;97.16
64198;SHT31;50512;53.666;9.700;2023-10-19T15:13:12;8.03;97.08
64198;SHT31;50512;53.666;9.700;2023-10-19T15:15:38;8.03;97.45
64198;SHT31;50512;53.666;9.700;2023-10-19T15:18:05;7.99;97.55
64198;SHT31;50512;53.666;9.700;2023-10-19T15:20:32;7.95;97.80
64198;SHT31;50512;53.666;9.700;2023-10-19T15:23:00;7.95;98.31
64198;SHT31;50512;53.666;9.700;2023-10-19T15:25:28;7.91;98.26
64198;SHT31;50512;53.666;9.700;2023-10-19T15:27:54;7.91;98.61
64198;SHT31;50512;53.666;9.700;2023-10-19T15:30:21;7.91;99.27
64198;SHT31;50512;53.666;9.700;2023-10-19T15:32:50;8.84;97.09
64198;SHT31;50512;53.666;9.700;2023-10-19T15:35:17;8.53;96.59
64198;SHT31;50512;53.666;9.700;2023-10-19T15:37:47;8.10;98.65
64198;SHT31;50512;53.666;9.700;2023-10-19T15:40:14;7.92;99.54
64198;SHT31;50512;53.666;9.700;2023-10-19T15:42:42;7.89;99.85
64198;SHT31;50512;53.666;9.700;2023-10-19T15:45:09;7.89;99.99
64198;SHT31;50512;53.666;9.700;2023-10-19T15:47:37;7.87;99.99
64198;SHT31;50512;53.666;9.700;2023-10-19T15:50:04;7.82;99.99
64198;SHT31;50512;53.666;9.700;2023-10-19T15:52:30;7.82;99.99